createdAt,value
2019-04-23T00:00:18.102Z,12.80
2019-04-23T00:02:46.189Z,12.90
2019-04-23T00:05:27.059Z,12.80
2019-04-23T00:07:51.543Z,12.80
2019-04-23T00:15:13.319Z,12.70
2019-04-23T00:17:45.186Z,12.70
2019-04-23T00:20:15.829Z,12.70
2019-04-23T00:22:51.744Z,12.60
2019-04-23T00:28:16.522Z,12.60
2019-04-23T00:30:43.193Z,12.50
2019-04-23T00:33:15.640Z,12.50
2019-04-23T00:35:39.875Z,12.50
2019-04-23T00:38:16.719Z,12.40
2019-04-23T00:40:40.646Z,12.50
2019-04-23T00:43:08.989Z,12.30
2019-04-23T00:45:41.150Z,12.30
2019-04-23T00:48:01.982Z,12.30
2019-04-23T00:50:44.752Z,12.20
2019-04-23T00:53:04.445Z,12.20
2019-04-23T00:55:41.570Z,12.20
2019-04-23T00:58:19.890Z,12.20
2019-04-23T01:03:06.160Z,12.10
2019-04-23T01:05:35.307Z,12.00
2019-04-23T01:08:06.272Z,12.10
2019-04-23T01:10:52.362Z,12.00
2019-04-23T01:13:25.170Z,12.00
2019-04-23T01:18:30.248Z,11.90
2019-04-23T01:20:50.211Z,11.90
2019-04-23T01:23:03.456Z,11.90
2019-04-23T01:25:49.077Z,11.80
2019-04-23T01:28:40.083Z,11.80
2019-04-23T01:31:09.323Z,11.80
2019-04-23T01:33:39.101Z,11.70
2019-04-23T01:36:16.456Z,11.70
2019-04-23T01:41:00.338Z,11.70
2019-04-23T01:43:36.550Z,11.70
2019-04-23T01:46:01.301Z,11.60
2019-04-23T01:48:32.885Z,11.60
2019-04-23T01:50:57.411Z,11.60
2019-04-23T01:53:33.343Z,11.50
2019-04-23T01:56:01.347Z,11.50
2019-04-23T01:58:38.357Z,11.50
2019-04-23T02:01:00.759Z,11.40
2019-04-23T02:03:36.570Z,11.40
2019-04-23T02:06:00.058Z,11.30
2019-04-23T02:08:25.988Z,10.30
2019-04-23T02:13:32.317Z,11.20
2019-04-23T02:15:52.844Z,11.10
2019-04-23T02:18:43.727Z,10.90
2019-04-23T02:20:59.608Z,11.00
2019-04-23T02:23:39.520Z,10.90
2019-04-23T02:26:02.969Z,10.80
2019-04-23T02:28:38.840Z,10.80
2019-04-23T02:31:21.639Z,10.70
2019-04-23T02:38:46.102Z,10.60
2019-04-23T02:41:13.079Z,10.60
2019-04-23T02:43:26.556Z,10.50
2019-04-23T02:51:04.861Z,10.40
2019-04-23T02:53:50.243Z,10.40
2019-04-23T02:58:43.803Z,10.30
2019-04-23T03:08:32.597Z,10.00
2019-04-23T03:11:09.855Z,10.00
2019-04-23T03:13:34.920Z,10.00
2019-04-23T03:16:19.884Z,10.00
2019-04-23T03:21:51.877Z,10.00
2019-04-23T03:29:48.972Z,10.10
2019-04-23T03:44:47.821Z,10.00
2019-04-23T03:47:11.481Z,10.00
2019-04-23T03:49:55.687Z,10.00
2019-04-23T03:52:13.641Z,10.00
2019-04-23T03:54:39.783Z,9.90
2019-04-23T03:57:15.579Z,10.00
2019-04-23T04:02:20.630Z,9.90
2019-04-23T04:04:33.326Z,10.00
2019-04-23T04:07:10.653Z,9.80
2019-04-23T04:09:38.646Z,9.80
2019-04-23T04:12:17.340Z,9.90
2019-04-23T04:14:44.827Z,9.80
2019-04-23T04:17:10.349Z,9.80
2019-04-23T04:19:40.037Z,9.70
2019-04-23T04:22:12.774Z,9.70
2019-04-23T04:27:08.047Z,9.70
2019-04-23T04:29:47.351Z,9.60
2019-04-23T04:32:02.680Z,9.60
2019-04-23T04:39:33.544Z,9.60
2019-04-23T04:42:06.111Z,9.60
2019-04-23T04:46:59.723Z,9.70
2019-04-23T04:49:49.446Z,9.70
2019-04-23T04:54:22.793Z,9.80
2019-04-23T04:57:10.400Z,9.80
2019-04-23T05:02:08.745Z,9.90
2019-04-23T05:12:03.633Z,10.30
2019-04-23T05:17:00.162Z,10.50
2019-04-23T05:19:45.636Z,10.60
2019-04-23T05:22:01.011Z,10.70
2019-04-23T05:26:48.192Z,10.90
2019-04-23T05:29:14.954Z,11.00
2019-04-23T05:31:46.573Z,11.10
2019-04-23T05:34:32.100Z,11.20
2019-04-23T05:41:50.475Z,11.40
2019-04-23T05:44:21.226Z,11.60
2019-04-23T05:46:45.909Z,11.60
2019-04-23T05:49:22.654Z,11.70
2019-04-23T05:51:55.574Z,11.80
2019-04-23T05:54:19.043Z,11.90
2019-04-23T05:56:49.023Z,12.00
2019-04-23T05:59:21.629Z,12.10
2019-04-23T06:01:53.964Z,12.30
2019-04-23T06:04:29.539Z,12.40
2019-04-23T06:06:54.065Z,12.50
2019-04-23T06:11:52.648Z,12.70
2019-04-23T06:19:49.772Z,13.00
2019-04-23T06:21:52.374Z,13.20
2019-04-23T06:26:47.482Z,13.30
2019-04-23T06:31:43.994Z,13.40
2019-04-23T06:34:16.615Z,13.70
2019-04-23T06:36:40.159Z,13.80
2019-04-23T06:39:10.290Z,14.00
2019-04-23T06:41:43.212Z,13.00
2019-04-23T06:44:19.271Z,14.30
2019-04-23T06:46:50.615Z,14.60
2019-04-23T06:49:21.935Z,14.80
2019-04-23T06:54:13.442Z,14.80
2019-04-23T06:59:13.643Z,15.20
2019-04-23T07:01:44.902Z,15.50
2019-04-23T07:04:14.647Z,15.60
2019-04-23T07:06:38.515Z,15.80
2019-04-23T07:09:12.130Z,16.00
2019-04-23T07:13:58.401Z,16.00
2019-04-23T07:19:14.944Z,16.10
2019-04-23T07:21:33.597Z,16.30
2019-04-23T07:29:18.895Z,16.10
2019-04-23T07:31:44.570Z,16.20
2019-04-23T07:36:41.125Z,16.30
2019-04-23T07:39:17.601Z,16.50
2019-04-23T07:44:42.564Z,16.70
2019-04-23T07:47:18.618Z,16.90
2019-04-23T07:49:45.370Z,17.10
2019-04-23T07:52:14.938Z,17.30
2019-04-23T07:54:38.730Z,17.50
2019-04-23T07:57:17.275Z,17.70
2019-04-23T08:02:12.798Z,18.20
2019-04-23T08:04:42.501Z,18.70
2019-04-23T08:07:07.763Z,19.10
2019-04-23T08:09:45.302Z,19.50
2019-04-23T08:12:13.318Z,20.10
2019-04-23T08:14:44.254Z,20.30
2019-04-23T08:17:04.063Z,20.80
2019-04-23T08:19:41.014Z,21.20
2019-04-23T08:22:15.523Z,21.90
2019-04-23T08:25:03.251Z,22.60
2019-04-23T08:27:30.562Z,22.60
2019-04-23T08:29:58.511Z,22.90
2019-04-23T08:39:52.396Z,23.40
2019-04-23T08:47:37.762Z,23.30
2019-04-23T08:50:02.410Z,24.00
2019-04-23T08:52:29.994Z,23.70
2019-04-23T08:57:29.297Z,24.60
2019-04-23T09:00:09.048Z,25.30
2019-04-23T09:02:35.318Z,25.30
2019-04-23T09:05:00.465Z,25.40
2019-04-23T09:07:46.733Z,25.80
2019-04-23T09:10:04.714Z,25.80
2019-04-23T09:12:38.530Z,25.70
2019-04-23T09:15:05.664Z,25.50
2019-04-23T09:20:15.071Z,25.80
2019-04-23T09:22:33.377Z,25.50
2019-04-23T09:27:31.667Z,25.50
2019-04-23T09:30:00.079Z,25.30
2019-04-23T09:32:26.572Z,26.20
2019-04-23T09:37:52.685Z,26.70
2019-04-23T09:40:54.453Z,26.70
2019-04-23T09:43:19.744Z,27.00
2019-04-23T09:45:48.811Z,27.90
2019-04-23T09:48:11.961Z,27.90
2019-04-23T09:50:50.774Z,27.30
2019-04-23T09:53:37.906Z,27.00
2019-04-23T09:55:53.375Z,27.40
2019-04-23T09:58:11.729Z,27.50
2019-04-23T10:03:04.477Z,27.10
2019-04-23T10:05:30.861Z,26.80
2019-04-23T10:07:59.882Z,26.80
2019-04-23T10:10:18.596Z,26.70
2019-04-23T10:12:46.147Z,26.20
2019-04-23T10:15:22.745Z,26.00
2019-04-23T10:17:44.507Z,26.20
2019-04-23T10:20:12.885Z,26.50
2019-04-23T10:22:42.090Z,26.90
2019-04-23T10:25:10.978Z,26.40
2019-04-23T10:27:39.173Z,26.40
2019-04-23T10:30:08.168Z,26.40
2019-04-23T10:32:36.036Z,26.70
2019-04-23T10:35:20.232Z,26.90
2019-04-23T10:37:44.788Z,28.10
2019-04-23T10:40:07.960Z,28.50
2019-04-23T10:42:37.818Z,27.90
2019-04-23T10:45:22.518Z,27.90
2019-04-23T10:48:21.704Z,27.90
2019-04-23T10:53:26.238Z,27.40
2019-04-23T10:58:16.388Z,27.70
2019-04-23T11:00:46.617Z,27.60
2019-04-23T11:03:35.385Z,27.70
2019-04-23T11:08:17.463Z,27.60
2019-04-23T11:10:48.442Z,27.30
2019-04-23T11:18:46.818Z,26.40
2019-04-23T11:21:09.137Z,26.30
2019-04-23T11:23:34.458Z,26.10
2019-04-23T11:26:05.535Z,26.10
2019-04-23T11:28:33.184Z,26.50
2019-04-23T11:31:04.449Z,26.50
2019-04-23T11:33:57.452Z,26.50
2019-04-23T11:40:59.945Z,26.20
2019-04-23T11:46:06.420Z,26.50
2019-04-23T11:51:39.412Z,26.80
2019-04-23T11:53:34.181Z,27.20
2019-04-23T11:56:02.893Z,26.60
2019-04-23T12:03:45.705Z,25.50
2019-04-23T12:06:25.025Z,25.90
2019-04-23T12:09:16.109Z,25.60
2019-04-23T12:12:28.058Z,25.70
2019-04-23T12:14:21.962Z,25.50
2019-04-23T12:17:20.390Z,25.40
2019-04-23T12:19:52.416Z,25.10
2019-04-23T12:22:10.455Z,24.90
2019-04-23T12:25:03.591Z,24.80
2019-04-23T12:27:03.368Z,24.90
2019-04-23T12:29:33.880Z,24.90
2019-04-23T12:32:35.577Z,25.20
2019-04-23T12:34:52.602Z,25.20
2019-04-23T12:37:28.561Z,25.50
2019-04-23T12:39:49.449Z,25.30
2019-04-23T12:42:41.579Z,25.10
2019-04-23T12:44:56.652Z,25.20
2019-04-23T12:47:40.208Z,25.20
2019-04-23T12:50:06.586Z,25.50
2019-04-23T12:52:21.427Z,25.70
2019-04-23T12:55:02.510Z,25.90
2019-04-23T12:57:18.782Z,25.70
2019-04-23T13:02:29.107Z,25.40
2019-04-23T13:04:50.315Z,25.40
2019-04-23T13:07:22.129Z,25.60
2019-04-23T13:09:58.598Z,25.50
2019-04-23T13:12:33.108Z,25.60
2019-04-23T13:14:49.546Z,25.70
2019-04-23T13:17:31.213Z,25.70
2019-04-23T13:19:47.422Z,26.00
2019-04-23T13:22:19.563Z,25.90
2019-04-23T13:24:57.787Z,25.80
2019-04-23T13:27:29.112Z,25.60
2019-04-23T13:32:21.564Z,25.80
2019-04-23T13:35:00.547Z,25.60
2019-04-23T13:37:31.647Z,25.30
2019-04-23T13:39:51.570Z,25.20
2019-04-23T13:42:33.700Z,25.00
2019-04-23T13:45:00.937Z,25.00
2019-04-23T13:47:27.909Z,24.80
2019-04-23T13:49:55.043Z,24.90
2019-04-23T13:52:43.014Z,24.90
2019-04-23T13:57:49.310Z,24.90
2019-04-23T14:02:23.412Z,24.70
2019-04-23T14:05:08.668Z,24.50
2019-04-23T14:07:38.448Z,24.60
2019-04-23T14:10:08.682Z,24.20
2019-04-23T14:12:33.721Z,24.20
2019-04-23T14:17:37.949Z,24.20
2019-04-23T14:20:03.807Z,24.00
2019-04-23T14:27:26.478Z,23.90
2019-04-23T14:30:05.500Z,23.90
2019-04-23T14:35:05.978Z,23.70
2019-04-23T14:37:21.624Z,23.70
2019-04-23T14:40:01.332Z,23.70
2019-04-23T14:42:35.178Z,23.60
2019-04-23T14:45:17.320Z,23.50
2019-04-23T14:47:29.502Z,23.70
2019-04-23T14:50:24.333Z,23.50
2019-04-23T14:52:45.360Z,23.60
2019-04-23T14:57:32.713Z,23.50
2019-04-23T15:00:01.802Z,23.40
2019-04-23T15:05:03.683Z,23.40
2019-04-23T15:07:31.240Z,23.50
2019-04-23T15:10:06.468Z,23.40
2019-04-23T15:12:30.449Z,23.50
2019-04-23T15:17:27.270Z,23.40
2019-04-23T15:20:03.347Z,23.40
2019-04-23T15:22:50.540Z,23.30
2019-04-23T15:25:03.920Z,23.50
2019-04-23T15:29:48.248Z,23.50
2019-04-23T15:32:24.143Z,23.40
2019-04-23T15:40:04.322Z,23.10
2019-04-23T15:42:26.678Z,23.20
2019-04-23T15:44:59.251Z,23.10
2019-04-23T15:47:32.572Z,23.00
2019-04-23T15:49:59.090Z,23.10
2019-04-23T15:52:19.227Z,23.10
2019-04-23T15:54:56.487Z,23.00
2019-04-23T15:57:41.667Z,22.90
2019-04-23T15:59:50.862Z,22.90
2019-04-23T16:01:51.938Z,22.80
2019-04-23T16:04:20.687Z,22.70
2019-04-23T16:06:49.793Z,22.70
2019-04-23T16:09:46.180Z,22.60
2019-04-23T16:12:09.939Z,22.40
2019-04-23T16:14:58.431Z,22.40
2019-04-23T16:17:24.066Z,22.30
2019-04-23T16:20:17.188Z,22.50
2019-04-23T16:22:36.818Z,22.40
2019-04-23T16:25:09.873Z,22.30
2019-04-23T16:27:32.014Z,22.20
2019-04-23T16:30:14.370Z,22.00
2019-04-23T16:38:01.437Z,21.90
2019-04-23T16:40:27.947Z,21.80
2019-04-23T16:42:59.058Z,21.80
2019-04-23T16:47:56.700Z,21.80
2019-04-23T16:50:18.165Z,21.60
2019-04-23T16:52:53.746Z,21.50
2019-04-23T16:55:18.193Z,21.50
2019-04-23T16:57:57.393Z,21.50
2019-04-23T17:02:56.157Z,21.10
2019-04-23T17:05:19.586Z,21.00
2019-04-23T17:07:51.413Z,21.00
2019-04-23T17:10:19.168Z,20.90
2019-04-23T17:12:52.258Z,20.80
2019-04-23T17:15:16.275Z,20.70
2019-04-23T17:17:49.522Z,20.60
2019-04-23T17:20:19.763Z,20.50
2019-04-23T17:22:46.717Z,20.50
2019-04-23T17:25:17.534Z,20.30
2019-04-23T17:27:51.075Z,20.20
2019-04-23T17:32:49.761Z,20.10
2019-04-23T17:35:46.248Z,19.90
2019-04-23T17:38:21.209Z,19.80
2019-04-23T17:40:42.542Z,19.70
2019-04-23T17:43:08.882Z,19.60
2019-04-23T17:50:52.999Z,19.30
2019-04-23T17:53:29.720Z,19.30
2019-04-23T17:55:54.630Z,19.20
2019-04-23T17:58:18.863Z,19.10
2019-04-23T18:00:54.393Z,19.10
2019-04-23T18:03:18.332Z,19.00
2019-04-23T18:05:58.863Z,18.90
2019-04-23T18:08:11.810Z,18.80
2019-04-23T18:10:49.469Z,18.80
2019-04-23T18:15:45.192Z,18.50
2019-04-23T18:18:16.544Z,18.40
2019-04-23T18:20:56.110Z,18.30
2019-04-23T18:23:14.860Z,18.20
2019-04-23T18:25:52.450Z,18.20
2019-04-23T18:28:19.718Z,18.10
2019-04-23T18:31:11.300Z,18.00
2019-04-23T18:36:05.323Z,17.80
2019-04-23T18:38:39.773Z,17.70
2019-04-23T18:43:35.716Z,17.50
2019-04-23T18:46:08.758Z,17.50
2019-04-23T18:48:44.154Z,17.40
2019-04-23T18:51:03.341Z,17.30
2019-04-23T18:53:43.436Z,17.20
2019-04-23T18:58:48.607Z,17.00
2019-04-23T19:03:55.312Z,16.90
2019-04-23T19:09:23.421Z,16.70
2019-04-23T19:11:59.382Z,16.60
2019-04-23T19:14:40.856Z,16.50
2019-04-23T19:17:23.601Z,16.50
2019-04-23T19:19:20.365Z,16.40
2019-04-23T19:24:21.924Z,16.30
2019-04-23T19:29:21.798Z,16.20
2019-04-23T19:44:20.096Z,15.70
2019-04-23T19:46:56.091Z,15.60
2019-04-23T19:49:19.716Z,15.50
2019-04-23T19:51:48.133Z,15.50
2019-04-23T19:54:28.818Z,15.40
2019-04-23T19:56:49.816Z,14.10
2019-04-23T19:59:15.978Z,15.30
2019-04-23T20:01:49.749Z,15.20
2019-04-23T20:04:12.913Z,15.20
2019-04-23T20:07:06.104Z,15.10
2019-04-23T20:09:30.864Z,15.00
2019-04-23T20:11:52.900Z,15.00
2019-04-23T20:14:09.585Z,15.00
2019-04-23T20:19:28.050Z,14.70
2019-04-23T20:21:50.841Z,14.70
2019-04-23T20:26:50.907Z,14.60
2019-04-23T20:35:00.294Z,14.40
2019-04-23T20:37:05.538Z,14.30
2019-04-23T20:39:47.110Z,14.30
2019-04-23T20:42:11.937Z,14.20
2019-04-23T20:44:47.521Z,14.10
2019-04-23T20:49:47.479Z,14.10
2019-04-23T20:54:51.197Z,14.00
2019-04-23T20:57:40.043Z,13.90
2019-04-23T21:00:24.106Z,13.80
2019-04-23T21:05:17.905Z,13.70
2019-04-23T21:22:51.427Z,13.40
2019-04-23T21:25:17.613Z,13.50
2019-04-23T21:28:00.642Z,13.40
2019-04-23T21:30:53.020Z,13.50
2019-04-23T21:33:07.363Z,13.60
2019-04-23T21:36:07.196Z,13.70
2019-04-23T21:38:55.723Z,13.80
2019-04-23T21:46:22.169Z,13.90
2019-04-23T21:51:30.950Z,14.10
2019-04-23T21:53:51.761Z,14.10
2019-04-23T21:56:15.252Z,14.10
2019-04-23T21:58:53.053Z,14.10
2019-04-23T22:06:22.380Z,14.20
2019-04-23T22:08:54.716Z,14.10
2019-04-23T22:11:49.515Z,14.10
2019-04-23T22:14:00.972Z,14.10
2019-04-23T22:18:58.686Z,14.00
2019-04-23T22:21:20.797Z,14.00
2019-04-23T22:23:57.669Z,14.00
2019-04-23T22:26:22.189Z,14.00
2019-04-23T22:29:00.013Z,14.00
2019-04-23T22:38:43.884Z,13.90
2019-04-23T22:41:10.555Z,13.90
2019-04-23T22:43:53.691Z,13.90
2019-04-23T22:46:15.448Z,13.80
2019-04-23T22:48:57.590Z,13.80
2019-04-23T22:51:25.634Z,13.80
2019-04-23T22:53:50.593Z,13.70
2019-04-23T22:56:13.775Z,13.70
2019-04-23T22:58:52.464Z,13.70
2019-04-23T23:01:23.049Z,13.70
2019-04-23T23:03:51.191Z,13.60
2019-04-23T23:06:17.397Z,13.60
2019-04-23T23:09:02.724Z,13.50
2019-04-23T23:11:14.038Z,13.40
2019-04-23T23:14:01.111Z,13.30
2019-04-23T23:16:16.451Z,13.30
2019-04-23T23:18:55.328Z,13.20
2019-04-23T23:21:20.554Z,13.20
2019-04-23T23:23:46.136Z,13.10
2019-04-23T23:26:17.502Z,13.10
2019-04-23T23:31:13.911Z,13.00
2019-04-23T23:33:52.017Z,11.50
2019-04-23T23:36:12.515Z,12.80
2019-04-23T23:38:52.318Z,12.70
2019-04-23T23:46:22.048Z,12.50
2019-04-23T23:48:41.344Z,12.40
2019-04-23T23:53:55.120Z,12.30
2019-04-23T23:58:53.984Z,12.20
